Decoded Metar for KATY (WATERTOWN in SD, USA) (IATA:ATY) | Meteo·Mobile Aviation Weather
aviador You're here:

KATY Decoded Metar

WATERTOWN in SD, USA
Report Time2019-02-23 00:53:00
UTC Time2019-02-23 01:18:58
Flight Rules vfr VFR
Wind100° at 08 kt
W.Decomp.*RWY 12: 7.2 kt HW 3.5 kt LCW
RWY 17: 1.9 kt HW 7.8 kt LCW
W.Rank100° ranks 26
Current wind is above 100° avg. (6.9)
Visibility9999 m
Phenomena:N/A
Clouds:Broken 075 Hf
Overcast 090 Hf
Expected CloudBase > 800 ft AGL from Temp-Dew spread
Ceiling7,500 ft
Temp-8°C (ISA -20)
Dew Point-10°C (86% RH)
AAT-13.9°C
QNH1019 hPa
Density Alt-833 ft
Elevation1,745 ft
Report Wrong Elevation
Raw Report
KATY 230053Z AUTO 10008KT 9SM BKN075 OVC090 M08/M10 A3010 RMK AO2
SLP228 T10781100=

Extra information for KATY:More info

Metar Taf Metar & Taf Last 4 Metars F.Rules Stats Wind Profile Meteogram Temp Stats Airport Information Weather charts Add Link Nearby VenuesMetar ALERT Operation Metar Decoded Social comments

AIRNAV info for KATY